createdAt,value
2022-12-31T00:00:21.995Z,3.66
2022-12-31T00:02:49.448Z,3.55
2022-12-31T00:05:16.583Z,3.60
2022-12-31T00:10:09.993Z,3.49
2022-12-31T00:12:37.022Z,3.57
2022-12-31T00:15:04.388Z,3.60
2022-12-31T00:17:31.716Z,3.48
2022-12-31T00:19:58.694Z,3.48
2022-12-31T00:22:25.696Z,3.54
2022-12-31T00:24:52.970Z,3.58
2022-12-31T00:27:22.323Z,3.61
2022-12-31T00:29:49.343Z,3.62
2022-12-31T00:32:16.638Z,3.58
2022-12-31T00:34:43.758Z,3.61
2022-12-31T00:37:10.751Z,3.53
2022-12-31T00:39:38.019Z,3.60
2022-12-31T00:42:05.237Z,3.63
2022-12-31T00:44:32.238Z,3.62
2022-12-31T00:46:59.543Z,3.58
2022-12-31T00:49:26.531Z,3.62
2022-12-31T00:51:53.537Z,3.50
2022-12-31T00:54:20.826Z,3.57
2022-12-31T00:56:47.888Z,3.53
2022-12-31T00:59:14.880Z,3.63
2022-12-31T01:01:42.963Z,3.72
2022-12-31T01:04:13.607Z,3.66
2022-12-31T01:06:58.858Z,3.65
2022-12-31T01:09:26.119Z,3.53
2022-12-31T01:11:53.160Z,3.51
2022-12-31T01:14:20.653Z,3.64
2022-12-31T01:16:51.028Z,3.55
2022-12-31T01:19:29.054Z,3.66
2022-12-31T01:21:56.887Z,3.61
2022-12-31T01:24:24.261Z,3.64
2022-12-31T01:26:51.799Z,3.72
2022-12-31T01:29:19.348Z,3.73
2022-12-31T01:31:46.567Z,3.73
2022-12-31T01:34:13.589Z,3.76
2022-12-31T01:36:40.908Z,3.83
2022-12-31T01:39:09.283Z,3.77
2022-12-31T01:41:39.229Z,3.80
2022-12-31T01:44:12.304Z,3.78
2022-12-31T01:47:00.851Z,3.82
2022-12-31T01:49:41.383Z,3.82
2022-12-31T01:52:16.302Z,3.93
2022-12-31T01:54:47.947Z,3.97
2022-12-31T01:57:15.929Z,3.85
2022-12-31T01:59:44.148Z,3.86
2022-12-31T02:02:12.769Z,3.80
2022-12-31T02:04:40.215Z,3.84
2022-12-31T02:07:08.627Z,3.91
2022-12-31T02:09:38.394Z,3.85
2022-12-31T02:12:06.768Z,3.86
2022-12-31T02:14:40.466Z,3.84
2022-12-31T02:17:29.489Z,3.87
2022-12-31T02:20:11.747Z,3.93
2022-12-31T02:22:38.980Z,3.86
2022-12-31T02:25:24.928Z,3.88
2022-12-31T02:28:04.195Z,3.81
2022-12-31T02:30:32.655Z,3.91
2022-12-31T02:33:38.688Z,3.79
2022-12-31T02:36:10.686Z,3.87
2022-12-31T02:38:41.634Z,3.82
2022-12-31T02:41:33.668Z,3.98
2022-12-31T02:44:01.058Z,3.86
2022-12-31T02:46:42.235Z,3.77
2022-12-31T02:49:19.169Z,3.70
2022-12-31T02:51:53.469Z,3.81
2022-12-31T02:55:03.625Z,3.79
2022-12-31T02:57:49.771Z,3.70
2022-12-31T03:00:36.230Z,3.70
2022-12-31T03:03:04.275Z,3.75
2022-12-31T03:05:34.906Z,3.77
2022-12-31T03:08:02.024Z,3.91
2022-12-31T03:10:29.207Z,3.95
2022-12-31T03:12:57.401Z,3.94
2022-12-31T03:15:28.615Z,3.90
2022-12-31T03:18:09.499Z,3.97
2022-12-31T03:21:04.070Z,4.04
2022-12-31T03:23:35.608Z,4.06
2022-12-31T03:26:11.067Z,3.92
2022-12-31T03:28:43.188Z,3.98
2022-12-31T03:31:11.452Z,3.97
2022-12-31T03:33:41.133Z,3.79
2022-12-31T03:36:13.648Z,3.85
2022-12-31T03:38:41.495Z,3.80
2022-12-31T03:41:10.848Z,3.76
2022-12-31T03:43:38.300Z,3.81
2022-12-31T03:46:05.791Z,3.77
2022-12-31T03:48:32.988Z,3.70
2022-12-31T03:51:00.065Z,3.77
2022-12-31T03:53:27.524Z,3.76
2022-12-31T03:55:55.271Z,3.68
2022-12-31T03:58:22.920Z,3.67
2022-12-31T04:00:50.766Z,3.78
2022-12-31T04:03:18.358Z,3.70
2022-12-31T04:05:45.505Z,3.69
2022-12-31T04:08:12.675Z,3.68
2022-12-31T04:10:40.071Z,3.69
2022-12-31T04:13:07.156Z,3.75
2022-12-31T04:15:34.258Z,3.67
2022-12-31T04:18:01.574Z,3.70
2022-12-31T04:20:28.644Z,3.68
2022-12-31T04:22:55.722Z,3.65
2022-12-31T04:25:23.084Z,3.73
2022-12-31T04:27:51.113Z,3.76
2022-12-31T04:30:18.226Z,3.78
2022-12-31T04:32:45.582Z,3.83
2022-12-31T04:35:12.687Z,3.80
2022-12-31T04:37:40.505Z,3.97
2022-12-31T04:40:08.777Z,4.06
2022-12-31T04:42:36.183Z,4.01
2022-12-31T04:45:04.081Z,3.89
2022-12-31T04:47:31.483Z,3.76
2022-12-31T04:49:58.813Z,3.73
2022-12-31T04:52:25.912Z,3.69
2022-12-31T04:54:53.261Z,3.71
2022-12-31T04:57:20.310Z,3.82
2022-12-31T04:59:47.684Z,3.84
2022-12-31T05:02:15.305Z,3.77
2022-12-31T05:04:43.702Z,3.79
2022-12-31T05:07:10.771Z,3.87
2022-12-31T05:09:38.134Z,3.84
2022-12-31T05:12:05.568Z,3.81
2022-12-31T05:14:32.644Z,3.78
2022-12-31T05:17:01.107Z,3.87
2022-12-31T05:19:28.293Z,3.88
2022-12-31T05:22:13.852Z,3.86
2022-12-31T05:24:41.247Z,3.79
2022-12-31T05:27:08.313Z,3.75
2022-12-31T05:29:35.396Z,3.69
2022-12-31T05:32:02.998Z,3.76
2022-12-31T05:34:30.064Z,3.78
2022-12-31T05:36:57.099Z,3.73
2022-12-31T05:39:24.438Z,3.68
2022-12-31T05:41:51.692Z,3.83
2022-12-31T05:44:18.936Z,3.73
2022-12-31T05:46:47.215Z,3.78
2022-12-31T05:49:14.374Z,3.78
2022-12-31T05:51:41.461Z,3.87
2022-12-31T05:54:08.837Z,3.82
2022-12-31T05:56:37.053Z,3.77
2022-12-31T05:59:04.158Z,3.80
2022-12-31T06:01:31.601Z,3.86
2022-12-31T06:03:59.006Z,3.85
2022-12-31T06:06:26.179Z,3.80
2022-12-31T06:08:53.256Z,3.86
2022-12-31T06:11:20.670Z,3.83
2022-12-31T06:13:47.741Z,3.83
2022-12-31T06:16:14.893Z,3.74
2022-12-31T06:18:42.426Z,3.80
2022-12-31T06:21:09.632Z,3.87
2022-12-31T06:23:36.710Z,3.93
2022-12-31T06:26:04.712Z,3.85
2022-12-31T06:28:31.939Z,3.89
2022-12-31T06:31:03.640Z,3.84
2022-12-31T06:33:31.465Z,3.93
2022-12-31T06:36:00.370Z,3.93
2022-12-31T06:38:28.745Z,4.03
2022-12-31T06:40:56.210Z,4.15
2022-12-31T06:43:23.427Z,4.21
2022-12-31T06:45:50.536Z,4.29
2022-12-31T06:48:18.695Z,4.35
2022-12-31T06:50:49.665Z,4.33
2022-12-31T06:53:16.731Z,4.26
2022-12-31T06:55:44.440Z,4.26
2022-12-31T06:58:15.956Z,4.35
2022-12-31T07:00:52.631Z,4.28
2022-12-31T07:03:25.846Z,4.25
2022-12-31T07:06:10.003Z,4.28
2022-12-31T07:08:41.072Z,4.26
2022-12-31T07:11:24.732Z,4.41
2022-12-31T07:14:15.590Z,4.43
2022-12-31T07:17:02.460Z,4.42
2022-12-31T07:19:35.323Z,4.46
2022-12-31T07:22:03.469Z,4.57
2022-12-31T07:24:30.777Z,4.52
2022-12-31T07:27:00.753Z,4.52
2022-12-31T07:29:52.612Z,4.56
2022-12-31T07:32:46.932Z,4.68
2022-12-31T07:35:23.252Z,4.82
2022-12-31T07:38:10.163Z,4.88
2022-12-31T07:40:53.102Z,5.08
2022-12-31T07:43:31.233Z,4.89
2022-12-31T07:46:22.759Z,4.90
2022-12-31T07:48:50.132Z,5.04
2022-12-31T07:51:17.751Z,5.01
2022-12-31T07:53:44.833Z,4.93
2022-12-31T07:56:11.894Z,4.94
2022-12-31T07:58:39.156Z,5.10
2022-12-31T08:01:11.360Z,5.10
2022-12-31T08:04:00.491Z,5.25
2022-12-31T08:06:36.665Z,5.40
2022-12-31T08:09:17.212Z,5.46
2022-12-31T08:11:53.106Z,5.68
2022-12-31T08:14:20.568Z,5.81
2022-12-31T08:16:47.922Z,5.94
2022-12-31T08:19:24.607Z,5.81
2022-12-31T08:22:05.863Z,5.95
2022-12-31T08:25:10.418Z,5.80
2022-12-31T08:27:42.018Z,5.85
2022-12-31T08:30:12.654Z,5.93
2022-12-31T08:32:52.163Z,5.99
2022-12-31T08:35:25.956Z,5.97
2022-12-31T08:37:56.689Z,6.17
2022-12-31T08:40:50.079Z,6.25
2022-12-31T08:43:33.385Z,6.32
2022-12-31T08:46:00.677Z,6.36
2022-12-31T08:48:34.733Z,6.44
2022-12-31T08:51:02.036Z,6.47
2022-12-31T08:53:29.610Z,6.64
2022-12-31T08:56:02.019Z,6.76
2022-12-31T08:58:40.554Z,7.06
2022-12-31T09:01:08.587Z,7.09
2022-12-31T09:03:48.198Z,7.06
2022-12-31T09:06:17.775Z,6.92
2022-12-31T09:08:51.848Z,6.87
2022-12-31T09:11:45.777Z,6.83
2022-12-31T09:14:25.426Z,6.75
2022-12-31T09:17:29.825Z,6.76
2022-12-31T09:19:57.459Z,6.74
2022-12-31T09:22:24.656Z,6.78
2022-12-31T09:24:51.708Z,6.76
2022-12-31T09:27:27.903Z,6.82
2022-12-31T09:30:11.026Z,6.83
2022-12-31T09:33:00.384Z,7.00
2022-12-31T09:35:52.480Z,7.10
2022-12-31T09:38:45.641Z,7.15
2022-12-31T09:41:53.286Z,7.41
2022-12-31T09:44:32.575Z,7.57
2022-12-31T09:47:29.162Z,7.74
2022-12-31T09:49:56.357Z,7.85
2022-12-31T09:52:39.070Z,7.72
2022-12-31T09:55:13.650Z,7.67
2022-12-31T09:57:47.662Z,7.87
2022-12-31T10:00:25.634Z,7.92
2022-12-31T10:02:59.716Z,7.97
2022-12-31T10:05:38.856Z,8.04
2022-12-31T10:08:27.879Z,8.23
2022-12-31T10:10:59.028Z,8.39
2022-12-31T10:13:41.884Z,8.58
2022-12-31T10:16:16.437Z,8.63
2022-12-31T10:19:21.400Z,8.62
2022-12-31T10:22:18.999Z,8.60
2022-12-31T10:25:38.120Z,8.44
2022-12-31T10:28:19.445Z,8.35
2022-12-31T10:31:06.894Z,8.31
2022-12-31T10:33:55.402Z,8.21
2022-12-31T10:36:44.920Z,8.34
2022-12-31T10:39:24.268Z,8.40
2022-12-31T10:42:10.303Z,8.27
2022-12-31T10:44:49.582Z,8.17
2022-12-31T10:47:49.161Z,8.13
2022-12-31T10:50:28.261Z,8.05
2022-12-31T10:53:18.163Z,7.94
2022-12-31T10:56:07.436Z,7.95
2022-12-31T10:58:53.307Z,8.05
2022-12-31T11:01:35.080Z,8.15
2022-12-31T11:04:53.920Z,8.11
2022-12-31T11:07:55.850Z,7.94
2022-12-31T11:11:01.963Z,7.94
2022-12-31T11:13:28.954Z,7.80
2022-12-31T11:16:17.745Z,7.73
2022-12-31T11:18:59.540Z,7.89
2022-12-31T11:22:08.984Z,8.09
2022-12-31T11:25:11.451Z,8.20
2022-12-31T11:27:44.813Z,8.26
2022-12-31T11:30:42.214Z,8.34
2022-12-31T11:33:32.061Z,8.09
2022-12-31T11:36:33.444Z,8.14
2022-12-31T11:39:31.639Z,8.35
2022-12-31T11:42:21.829Z,8.48
2022-12-31T11:45:04.469Z,8.51
2022-12-31T11:51:01.249Z,8.63
2022-12-31T11:53:42.343Z,8.79
2022-12-31T11:56:16.257Z,8.92
2022-12-31T11:58:47.879Z,9.03
2022-12-31T12:01:32.511Z,9.06
2022-12-31T12:04:00.507Z,9.12
2022-12-31T12:06:30.817Z,9.20
2022-12-31T12:09:07.425Z,9.05
2022-12-31T12:11:38.353Z,9.05
2022-12-31T12:14:30.141Z,8.98
2022-12-31T12:17:04.448Z,9.10
2022-12-31T12:19:34.423Z,9.24
2022-12-31T12:22:23.121Z,9.24
2022-12-31T12:25:03.384Z,9.44
2022-12-31T12:27:33.588Z,9.48
2022-12-31T12:30:31.519Z,9.61
2022-12-31T12:33:00.826Z,9.93
2022-12-31T12:35:30.767Z,10.12
2022-12-31T12:38:06.459Z,10.15
2022-12-31T12:40:34.799Z,10.27
2022-12-31T12:43:03.231Z,10.31
2022-12-31T12:45:52.436Z,10.17
2022-12-31T12:48:41.103Z,10.17
2022-12-31T12:51:46.153Z,9.93
2022-12-31T12:54:28.137Z,9.86
2022-12-31T12:57:16.447Z,9.72
2022-12-31T13:00:01.750Z,9.56
2022-12-31T13:03:02.903Z,9.60
2022-12-31T13:06:04.441Z,9.69
2022-12-31T13:08:44.609Z,9.75
2022-12-31T13:11:27.340Z,9.73
2022-12-31T13:14:08.079Z,9.79
2022-12-31T13:17:00.567Z,9.93
2022-12-31T13:19:30.676Z,10.03
2022-12-31T13:22:03.089Z,10.00
2022-12-31T13:24:53.181Z,10.12
2022-12-31T13:27:35.792Z,10.07
2022-12-31T13:30:07.330Z,10.12
2022-12-31T13:32:45.385Z,10.16
2022-12-31T13:35:36.477Z,10.20
2022-12-31T13:38:07.203Z,9.76
2022-12-31T13:40:45.327Z,9.81
2022-12-31T13:43:19.956Z,9.85
2022-12-31T13:45:50.221Z,9.87
2022-12-31T13:48:21.967Z,9.88
2022-12-31T13:51:00.497Z,9.75
2022-12-31T13:53:34.096Z,9.67
2022-12-31T13:56:06.171Z,9.68
2022-12-31T13:58:37.956Z,9.69
2022-12-31T14:01:34.228Z,9.64
2022-12-31T14:04:24.952Z,9.70
2022-12-31T14:06:55.941Z,9.72
2022-12-31T14:09:25.724Z,9.65
2022-12-31T14:12:17.944Z,9.80
2022-12-31T14:15:23.150Z,9.49
2022-12-31T14:17:56.367Z,9.48
2022-12-31T14:20:33.011Z,9.39
2022-12-31T14:23:20.182Z,9.33
2022-12-31T14:26:05.927Z,9.28
2022-12-31T14:28:46.974Z,9.25
2022-12-31T14:31:29.311Z,9.27
2022-12-31T14:34:09.770Z,9.29
2022-12-31T14:36:58.940Z,9.33
2022-12-31T14:39:51.414Z,9.24
2022-12-31T14:42:30.192Z,9.04
2022-12-31T14:45:23.069Z,9.08
2022-12-31T14:47:55.482Z,9.04
2022-12-31T14:50:25.660Z,9.20
2022-12-31T14:52:53.872Z,9.13
2022-12-31T14:55:38.388Z,9.15
2022-12-31T14:58:39.353Z,9.02
2022-12-31T15:01:19.797Z,8.98
2022-12-31T15:03:47.215Z,8.86
2022-12-31T15:06:23.160Z,8.87
2022-12-31T15:09:11.807Z,8.85
2022-12-31T15:12:03.615Z,8.83
2022-12-31T15:14:45.599Z,8.78
2022-12-31T15:17:37.494Z,8.60
2022-12-31T15:20:32.427Z,8.58
2022-12-31T15:22:59.544Z,8.54
2022-12-31T15:25:40.357Z,8.57
2022-12-31T15:28:29.201Z,8.48
2022-12-31T15:31:04.261Z,8.49
2022-12-31T15:33:36.770Z,8.45
2022-12-31T15:36:19.759Z,8.31
2022-12-31T15:38:47.374Z,8.24
2022-12-31T15:41:24.663Z,8.32
2022-12-31T15:43:58.597Z,8.23
2022-12-31T15:46:29.574Z,8.18
2022-12-31T15:49:05.944Z,8.10
2022-12-31T15:51:56.488Z,8.02
2022-12-31T15:54:49.502Z,8.19
2022-12-31T15:57:26.301Z,8.24
2022-12-31T16:00:01.607Z,8.28
2022-12-31T16:02:29.089Z,8.27
2022-12-31T16:04:57.177Z,8.22
2022-12-31T16:07:24.933Z,8.24
2022-12-31T16:09:57.618Z,8.24
2022-12-31T16:12:33.202Z,8.27
2022-12-31T16:15:02.021Z,8.28
2022-12-31T16:17:30.540Z,8.28
2022-12-31T16:19:58.626Z,8.24
2022-12-31T16:22:29.557Z,8.32
2022-12-31T16:27:46.503Z,8.30
2022-12-31T16:30:33.249Z,8.24
2022-12-31T16:33:06.810Z,8.12
2022-12-31T16:35:36.599Z,8.05
2022-12-31T16:38:18.961Z,8.04
2022-12-31T16:41:01.647Z,8.08
2022-12-31T16:43:40.669Z,8.12
2022-12-31T16:46:30.427Z,8.23
2022-12-31T16:49:07.897Z,8.37
2022-12-31T16:51:37.069Z,8.43
2022-12-31T16:54:04.484Z,8.46
2022-12-31T16:56:37.286Z,8.53
2022-12-31T16:59:13.891Z,8.52
2022-12-31T17:01:42.576Z,8.52
2022-12-31T17:04:11.491Z,8.65
2022-12-31T17:06:38.670Z,8.74
2022-12-31T17:09:20.572Z,8.81
2022-12-31T17:11:54.653Z,8.92
2022-12-31T17:14:24.392Z,9.03
2022-12-31T17:17:08.294Z,9.05
2022-12-31T17:19:47.224Z,9.21
2022-12-31T17:22:36.918Z,9.43
2022-12-31T17:25:26.851Z,9.41
2022-12-31T17:27:58.203Z,9.50
2022-12-31T17:30:28.208Z,9.43
2022-12-31T17:33:21.604Z,9.49
2022-12-31T17:35:54.418Z,9.58
2022-12-31T17:38:21.691Z,9.64
2022-12-31T17:40:52.934Z,9.47
2022-12-31T17:43:23.234Z,9.59
2022-12-31T17:45:51.746Z,9.35
2022-12-31T17:48:19.900Z,9.56
2022-12-31T17:50:48.166Z,9.35
2022-12-31T17:53:17.121Z,9.53
2022-12-31T17:55:45.892Z,9.59
2022-12-31T17:58:42.412Z,9.63
2022-12-31T18:01:10.029Z,9.71
2022-12-31T18:03:37.645Z,9.74
2022-12-31T18:06:05.467Z,9.55
2022-12-31T18:08:32.577Z,9.49
2022-12-31T18:11:00.048Z,9.41
2022-12-31T18:13:27.529Z,9.46
2022-12-31T18:15:55.424Z,9.34
2022-12-31T18:18:28.388Z,9.21
2022-12-31T18:21:03.944Z,9.04
2022-12-31T18:23:35.276Z,8.95
2022-12-31T18:26:02.376Z,8.86
2022-12-31T18:28:29.480Z,8.85
2022-12-31T18:30:56.933Z,8.65
2022-12-31T18:33:25.748Z,8.49
2022-12-31T18:36:10.228Z,8.38
2022-12-31T18:38:38.115Z,8.39
2022-12-31T18:41:05.970Z,8.39
2022-12-31T18:43:34.972Z,8.21
2022-12-31T18:46:02.456Z,8.20
2022-12-31T18:48:29.581Z,8.09
2022-12-31T18:50:56.627Z,8.07
2022-12-31T18:53:24.390Z,8.16
2022-12-31T18:55:56.449Z,8.13
2022-12-31T18:58:24.052Z,8.13
2022-12-31T19:00:51.965Z,8.12
2022-12-31T19:03:22.013Z,8.10
2022-12-31T19:05:50.981Z,8.09
2022-12-31T19:08:21.747Z,7.94
2022-12-31T19:10:50.867Z,7.92
2022-12-31T19:13:19.643Z,7.88
2022-12-31T19:15:49.153Z,7.93
2022-12-31T19:18:16.511Z,7.93
2022-12-31T19:20:43.836Z,7.90
2022-12-31T19:23:22.343Z,7.90
2022-12-31T19:25:49.853Z,7.91
2022-12-31T19:28:24.878Z,7.86
2022-12-31T19:30:52.541Z,7.81
2022-12-31T19:33:19.924Z,7.68
2022-12-31T19:35:49.837Z,7.57
2022-12-31T19:38:23.485Z,7.49
2022-12-31T19:40:51.363Z,7.29
2022-12-31T19:43:20.359Z,7.36
2022-12-31T19:45:48.081Z,7.37
2022-12-31T19:48:17.598Z,7.36
2022-12-31T19:50:47.310Z,7.36
2022-12-31T19:53:20.283Z,7.28
2022-12-31T19:55:48.460Z,7.34
2022-12-31T19:58:27.590Z,7.44
2022-12-31T20:01:01.905Z,7.53
2022-12-31T20:03:32.688Z,7.52
2022-12-31T20:06:08.403Z,7.55
2022-12-31T20:08:37.011Z,7.49
2022-12-31T20:11:12.429Z,7.51
2022-12-31T20:13:40.790Z,7.44
2022-12-31T20:16:14.057Z,7.44
2022-12-31T20:18:42.125Z,7.43
2022-12-31T20:21:20.472Z,7.42
2022-12-31T20:23:49.078Z,7.41
2022-12-31T20:26:16.490Z,7.42
2022-12-31T20:28:43.480Z,7.43
2022-12-31T20:31:13.364Z,7.39
2022-12-31T20:33:40.995Z,7.33
2022-12-31T20:36:10.724Z,7.32
2022-12-31T20:38:38.331Z,7.32
2022-12-31T20:41:07.376Z,7.32
2022-12-31T20:43:35.588Z,7.37
2022-12-31T20:46:20.641Z,7.26
2022-12-31T20:48:48.588Z,7.24
2022-12-31T20:51:16.821Z,7.24
2022-12-31T20:53:52.145Z,7.30
2022-12-31T20:56:19.552Z,7.36
2022-12-31T20:58:46.819Z,7.24
2022-12-31T21:01:14.926Z,7.24
2022-12-31T21:06:31.880Z,7.31
2022-12-31T21:09:01.068Z,7.37
2022-12-31T21:11:46.634Z,7.50
2022-12-31T21:14:14.498Z,7.70
2022-12-31T21:16:41.579Z,7.81
2022-12-31T21:19:09.930Z,7.73
2022-12-31T21:21:37.440Z,7.67
2022-12-31T21:24:05.036Z,7.67
2022-12-31T21:26:32.433Z,7.62
2022-12-31T21:28:59.949Z,7.55
2022-12-31T21:31:27.086Z,7.52
2022-12-31T21:33:54.209Z,7.69
2022-12-31T21:36:21.608Z,7.75
2022-12-31T21:38:49.204Z,7.76
2022-12-31T21:41:35.417Z,7.83
2022-12-31T21:44:03.035Z,7.79
2022-12-31T21:46:30.310Z,7.72
2022-12-31T21:48:59.375Z,7.65
2022-12-31T21:51:27.447Z,7.79
2022-12-31T21:53:54.661Z,7.74
2022-12-31T21:56:22.586Z,7.67
2022-12-31T21:59:17.382Z,7.56
2022-12-31T22:02:03.157Z,7.50
2022-12-31T22:07:17.913Z,7.36
2022-12-31T22:09:45.264Z,7.36
2022-12-31T22:12:12.333Z,7.29
2022-12-31T22:14:39.466Z,7.29
2022-12-31T22:17:26.859Z,7.31
2022-12-31T22:20:25.179Z,7.27
2022-12-31T22:22:41.277Z,7.27
2022-12-31T22:25:08.825Z,7.29
2022-12-31T22:27:35.877Z,7.16
2022-12-31T22:30:03.460Z,7.23
2022-12-31T22:32:35.780Z,7.13
2022-12-31T22:35:03.285Z,7.17
2022-12-31T22:40:18.022Z,7.23
2022-12-31T22:42:45.153Z,7.29
2022-12-31T22:45:12.284Z,7.15
2022-12-31T22:47:39.673Z,7.13
2022-12-31T22:50:07.256Z,7.04
2022-12-31T22:52:34.341Z,6.97
2022-12-31T22:55:01.769Z,6.87
2022-12-31T22:57:28.853Z,6.88
2022-12-31T22:59:55.912Z,6.85
2022-12-31T23:02:23.278Z,6.84
2022-12-31T23:04:50.384Z,6.76
2022-12-31T23:07:17.423Z,6.63
2022-12-31T23:10:03.092Z,6.62
2022-12-31T23:12:30.187Z,6.62
2022-12-31T23:15:15.870Z,6.59
2022-12-31T23:18:01.790Z,6.66
2022-12-31T23:20:47.967Z,6.55
2022-12-31T23:23:16.390Z,6.56
2022-12-31T23:25:49.036Z,6.57
2022-12-31T23:28:19.471Z,6.57
2022-12-31T23:30:47.059Z,6.56
2022-12-31T23:33:25.094Z,6.64
2022-12-31T23:36:03.377Z,6.71
2022-12-31T23:38:30.418Z,6.72
2022-12-31T23:40:57.791Z,6.74
2022-12-31T23:43:24.864Z,6.79
2022-12-31T23:45:55.161Z,6.80
2022-12-31T23:48:22.497Z,6.84
2022-12-31T23:50:53.586Z,6.93
2022-12-31T23:53:22.869Z,7.01
2022-12-31T23:55:50.959Z,6.90
2022-12-31T23:58:18.069Z,6.88
